Pagrindinis puslapis
METAR-TAF:

METAR-TAF

Oro uostai :

Nadžafas, Irakas

platuma: 31-59-23N, ilguma: 44-24-15E, Aukštis: 31 m

Dabartinis oras

Ataskaita buvo paskelbta 19 minutes, ne 08:00 UTC
Vėjas 4 kt iš Pietų
Temperatūra 34°C
Drėgmė 26%
Slėgis 1015 hPa
Matomumas 10 km arba daugiau
Išsisklaidę debesys ne aukštis 4000 ft

METAR: ORNI 180800Z 18004KT 9999 SCT040 34/12 Q1015 NOSIG

Laikas: 11:19 (08:19 UTC)

Prognozė

Ataskaita buvo paskelbta 4 valandos ir 19 minutes, ne 04:00 UTC
Prognozė galioja nuo 18 metu 06 UTC su 19 metu 06 UTC
Vėjas 7 kt iš Vakarų/Šiaurės Vakarų
Matomumas: 7000 m
Išsisklaidę debesys ne aukštis 4000 ft

TAF: ORNI 180400Z 1806/1906 30007KT 7000 SCT040

Orai ataskaitas ir orų prognozės (METAR, TAF).

turimą stotys yra geltonos ir raudonos taškus žemėlapyje.

Perkelti pele per norėdami pamatyti stoties vardą.

Tada spustelėkite, norėdami matyti oro stebėjimo ir prognozės.

Norėdami pakeisti žemėlapį: spustelėkite ant žalios mygtukų su juodo kryžiaus žemyn,; žalią mygtuką su brūkšneliu, jei norite nutolinti; arba žalių rodyklių gretimoms žemėlapius.


METAR-TAF: